Time;durP1;ratioP1;P1;durP2;ratioP2;P2;SDS_P1;SDS_P2;PMS_P1;PMS_P2;Temp;Humidity;BMP_temperature;BMP_pressure;BME280_temperature;BME280_humidity;BME280_pressure;Samples;Min_cycle;Max_cycle;Signal;HPM_P1;HPM_P2
2023/05/02 00:00:26;;;;;;;1.27;1.17;;;12.80;99.90;;;;;;1893985;75;21134;-84
2023/05/02 00:03:18;;;;;;;1.10;1.00;;;12.80;99.90;;;;;;1872662;75;21121;-84
2023/05/02 00:06:10;;;;;;;2.60;1.40;;;12.80;99.90;;;;;;1887671;75;21086;-84
2023/05/02 00:09:01;;;;;;;1.17;1.00;;;12.80;99.90;;;;;;1905717;75;21103;-84
2023/05/02 00:11:53;;;;;;;2.25;1.10;;;12.80;99.90;;;;;;1880537;75;21167;-85
2023/05/02 00:14:44;;;;;;;1.42;1.15;;;12.70;99.90;;;;;;1871900;76;21097;-84
2023/05/02 00:17:36;;;;;;;1.37;0.90;;;12.70;99.90;;;;;;1883890;75;21103;-84
2023/05/02 00:20:27;;;;;;;1.12;0.98;;;12.60;99.90;;;;;;1881447;75;21086;-84
2023/05/02 00:23:19;;;;;;;2.60;1.10;;;12.60;99.90;;;;;;1882942;75;21134;-84
2023/05/02 00:28:51;;;;;;;2.33;1.80;;;12.60;99.90;;;;;;1956958;72;22281;-83
2023/05/02 00:31:43;;;;;;;3.47;1.65;;;12.60;99.90;;;;;;1917060;75;21086;-84
2023/05/02 00:34:35;;;;;;;3.35;1.40;;;12.70;99.90;;;;;;1894699;75;21184;-84
2023/05/02 00:37:28;;;;;;;2.67;1.50;;;12.60;99.90;;;;;;1884061;75;21162;-83
2023/05/02 00:40:20;;;;;;;3.17;1.60;;;12.70;99.90;;;;;;1883852;76;21717;-84
2023/05/02 00:43:12;;;;;;;1.75;1.60;;;12.70;99.90;;;;;;1905796;75;21119;-86
2023/05/02 00:46:04;;;;;;;1.72;1.60;;;12.70;99.90;;;;;;1869456;76;21171;-86
2023/05/02 00:48:56;;;;;;;1.92;1.72;;;12.70;99.90;;;;;;1883874;76;21134;-84
2023/05/02 00:51:47;;;;;;;3.70;1.60;;;12.70;99.90;;;;;;1897605;75;21083;-84
2023/05/02 00:57:21;;;;;;;3.47;1.60;;;12.60;99.90;;;;;;1953643;72;22205;-84
2023/05/02 01:00:15;;;;;;;2.12;1.45;;;12.60;99.90;;;;;;1904147;75;21128;-85
2023/05/02 01:05:54;;;;;;;3.52;1.60;;;12.60;99.90;;;;;;1966844;72;22208;-84
2023/05/02 01:08:49;;;;;;;2.20;1.55;;;12.60;99.90;;;;;;1919873;73;21163;-83
2023/05/02 01:11:45;;;;;;;1.65;1.55;;;12.60;99.90;;;;;;1929164;73;21131;-84
2023/05/02 01:14:39;;;;;;;1.70;1.40;;;12.50;99.90;;;;;;1916621;75;21585;-85
2023/05/02 01:17:32;;;;;;;2.47;1.50;;;12.50;99.90;;;;;;1916802;75;21603;-85
2023/05/02 01:20:27;;;;;;;1.75;1.40;;;12.50;99.90;;;;;;1924143;73;21126;-84
2023/05/02 01:23:23;;;;;;;2.67;1.32;;;12.50;99.90;;;;;;1925262;73;21176;-84
2023/05/02 01:26:25;;;;;;;1.47;1.30;;;12.40;99.90;;;;;;1928814;73;21181;-84
2023/05/02 01:32:02;;;;;;;1.70;1.40;;;12.40;99.90;;;;;;1955472;72;22269;-83
2023/05/02 01:34:56;;;;;;;1.75;1.42;;;12.30;99.90;;;;;;1889227;74;21110;-83
2023/05/02 01:37:49;;;;;;;1.62;1.40;;;12.30;99.90;;;;;;1906052;75;21091;-86
2023/05/02 01:40:41;;;;;;;1.60;1.50;;;12.30;99.90;;;;;;1902058;75;21098;-84
2023/05/02 01:43:35;;;;;;;3.05;1.65;;;12.30;99.90;;;;;;1883399;75;21136;-84
2023/05/02 01:46:28;;;;;;;2.02;1.40;;;12.30;99.90;;;;;;1883737;75;21094;-84
2023/05/02 01:49:22;;;;;;;1.35;1.20;;;12.30;99.90;;;;;;1905830;75;21050;-84
2023/05/02 01:52:14;;;;;;;2.65;1.35;;;12.30;99.90;;;;;;1904433;75;21087;-84
2023/05/02 01:55:13;;;;;;;1.85;1.17;;;12.30;99.90;;;;;;1900524;75;21110;-84
2023/05/02 01:58:06;;;;;;;1.32;1.22;;;12.30;99.90;;;;;;1896007;75;21108;-84
2023/05/02 02:01:01;;;;;;;2.70;1.40;;;12.30;99.90;;;;;;1887981;75;21145;-84
2023/05/02 02:06:33;;;;;;;1.32;1.00;;;12.30;99.90;;;;;;2047579;69;22105;-84
2023/05/02 02:09:25;;;;;;;1.25;1.10;;;12.30;99.90;;;;;;1964867;72;21530;-86
2023/05/02 02:12:21;;;;;;;1.60;1.30;;;12.20;99.90;;;;;;1962708;72;21070;-85
2023/05/02 02:15:16;;;;;;;2.08;1.40;;;12.20;99.90;;;;;;1960004;72;21092;-85
2023/05/02 02:18:11;;;;;;;1.65;1.50;;;12.20;99.90;;;;;;1951443;73;21090;-84
2023/05/02 02:21:05;;;;;;;1.77;1.20;;;12.20;99.90;;;;;;1951250;72;21103;-84
2023/05/02 02:23:59;;;;;;;3.33;1.60;;;12.10;99.90;;;;;;1951444;73;21078;-84
2023/05/02 02:26:52;;;;;;;2.10;1.40;;;12.10;99.90;;;;;;1975072;72;21120;-84
2023/05/02 02:32:28;;;;;;;1.98;1.42;;;12.50;99.90;;;;;;1953728;72;22186;-84
2023/05/02 02:35:20;;;;;;;1.40;1.30;;;12.60;99.90;;;;;;1894823;75;21176;-86
2023/05/02 02:38:16;;;;;;;2.02;1.20;;;12.70;99.90;;;;;;1888847;75;21160;-85
2023/05/02 02:41:13;;;;;;;1.52;1.10;;;12.50;99.90;;;;;;1886228;75;21114;-84
2023/05/02 02:44:09;;;;;;;2.12;1.45;;;12.70;99.90;;;;;;1896403;75;21117;-85
2023/05/02 02:47:07;;;;;;;1.47;1.27;;;12.70;99.90;;;;;;1900921;75;21114;-84
2023/05/02 02:50:07;;;;;;;3.70;1.27;;;12.50;99.90;;;;;;1904152;75;21051;-85
2023/05/02 02:53:02;;;;;;;1.45;1.35;;;12.30;99.90;;;;;;1905744;75;21118;-85
2023/05/02 02:55:58;;;;;;;1.70;1.45;;;12.20;99.90;;;;;;1883734;75;21150;-84
2023/05/02 02:58:53;;;;;;;1.67;1.57;;;12.20;99.90;;;;;;1883323;75;21157;-85
2023/05/02 03:04:27;;;;;;;1.20;1.10;;;12.30;99.90;;;;;;1954213;72;22158;-84
2023/05/02 03:07:20;;;;;;;2.37;1.50;;;12.20;99.90;;;;;;1889148;74;21075;-84
2023/05/02 03:10:12;;;;;;;2.60;1.60;;;12.10;99.90;;;;;;1905676;75;21107;-84
2023/05/02 03:13:03;;;;;;;2.10;1.40;;;12.10;99.90;;;;;;1901851;75;21038;-83
2023/05/02 03:16:16;;;;;;;2.80;1.52;;;12.00;99.90;;;;;;1883658;76;21205;-83
2023/05/02 03:19:08;;;;;;;1.92;1.45;;;12.00;99.90;;;;;;1895958;75;21502;-83
2023/05/02 03:22:00;;;;;;;1.60;1.50;;;12.10;99.90;;;;;;1915743;75;21122;-84
2023/05/02 03:24:52;;;;;;;5.35;1.67;;;12.10;99.90;;;;;;1891751;75;21104;-83
2023/05/02 03:27:43;;;;;;;2.10;1.67;;;12.10;99.90;;;;;;1902371;75;21161;-83
2023/05/02 03:30:39;;;;;;;2.55;1.40;;;12.00;99.90;;;;;;1902187;75;21482;-83
2023/05/02 03:33:28;;;;;;;2.35;1.80;;;12.20;99.90;;;;;;1904951;75;21187;-84
2023/05/02 03:36:19;;;;;;;3.37;1.92;;;12.30;99.90;;;;;;1904857;75;21058;-84
2023/05/02 03:39:11;;;;;;;2.12;1.60;;;12.40;99.90;;;;;;1883518;76;21117;-84
2023/05/02 03:42:03;;;;;;;2.60;1.50;;;12.50;99.90;;;;;;1899082;75;21113;-85
2023/05/02 03:44:55;;;;;;;1.60;1.30;;;12.50;99.90;;;;;;1906091;75;21132;-85
2023/05/02 03:47:48;;;;;;;4.95;1.72;;;12.50;99.90;;;;;;1905592;75;21180;-85
2023/05/02 03:50:40;;;;;;;1.90;1.50;;;12.50;99.90;;;;;;1905863;75;21092;-84
2023/05/02 03:53:32;;;;;;;2.08;1.42;;;12.40;99.90;;;;;;1901295;75;21094;-84
2023/05/02 03:56:24;;;;;;;2.08;1.80;;;12.40;99.90;;;;;;1896376;75;21145;-84
2023/05/02 03:59:17;;;;;;;3.90;1.80;;;12.40;99.90;;;;;;1894521;75;21107;-84
2023/05/02 04:02:10;;;;;;;2.37;1.50;;;12.30;99.90;;;;;;1894426;75;21103;-84
2023/05/02 04:05:03;;;;;;;2.33;1.67;;;12.30;99.90;;;;;;1905341;74;21153;-84
2023/05/02 04:07:55;;;;;;;1.55;1.37;;;12.40;99.90;;;;;;1907971;74;21090;-84
2023/05/02 04:10:47;;;;;;;2.47;1.70;;;12.30;99.90;;;;;;1925880;74;21086;-84
2023/05/02 04:13:39;;;;;;;2.08;1.47;;;12.30;99.90;;;;;;1903534;74;21086;-84
2023/05/02 04:16:30;;;;;;;3.22;1.60;;;12.20;99.90;;;;;;1904230;74;21614;-84
2023/05/02 04:19:22;;;;;;;3.37;1.60;;;12.30;99.90;;;;;;1908485;74;21236;-84
2023/05/02 04:22:14;;;;;;;1.52;1.32;;;12.40;99.90;;;;;;1903280;74;21130;-84
2023/05/02 04:25:08;;;;;;;2.37;1.70;;;12.30;99.90;;;;;;1902951;74;21701;-84
2023/05/02 04:28:01;;;;;;;2.47;1.40;;;12.40;99.90;;;;;;1903522;74;21130;-84
2023/05/02 04:30:56;;;;;;;3.02;1.50;;;12.40;99.90;;;;;;1907604;74;21139;-85
2023/05/02 04:33:49;;;;;;;2.35;1.57;;;12.30;99.90;;;;;;1892848;76;21188;-84
2023/05/02 04:36:44;;;;;;;4.75;1.60;;;12.30;99.90;;;;;;1914832;74;21328;-84
2023/05/02 04:39:36;;;;;;;2.00;1.62;;;12.40;99.90;;;;;;1897339;74;21245;-84
2023/05/02 04:42:30;;;;;;;1.80;1.50;;;12.40;99.90;;;;;;1903606;74;21094;-84
2023/05/02 04:45:26;;;;;;;1.90;1.52;;;12.30;99.90;;;;;;1889929;75;21146;-84
2023/05/02 04:48:18;;;;;;;1.80;1.47;;;12.20;99.90;;;;;;1892571;74;21095;-84
2023/05/02 04:51:10;;;;;;;2.25;2.05;;;12.30;99.90;;;;;;1899328;74;21157;-82
2023/05/02 04:54:01;;;;;;;1.80;1.40;;;12.30;99.90;;;;;;1901651;74;21610;-81
2023/05/02 04:56:53;;;;;;;2.45;1.95;;;12.40;99.90;;;;;;1911203;74;21184;-81
2023/05/02 04:59:46;;;;;;;3.80;1.80;;;12.40;99.90;;;;;;1912083;74;21714;-81
2023/05/02 05:05:22;;;;;;;2.22;1.70;;;12.30;99.90;;;;;;1943409;72;22214;-83
2023/05/02 05:08:13;;;;;;;2.92;1.50;;;12.20;99.90;;;;;;1884828;75;21139;-83
2023/05/02 05:13:44;;;;;;;2.47;1.72;;;12.30;99.90;;;;;;1931433;72;22326;-84
2023/05/02 05:16:37;;;;;;;2.08;1.80;;;12.30;99.90;;;;;;1886971;75;21139;-81
2023/05/02 05:19:28;;;;;;;2.83;1.87;;;12.30;99.90;;;;;;1888291;75;21107;-84
2023/05/02 05:22:21;;;;;;;3.22;1.67;;;12.30;99.90;;;;;;1882949;75;21629;-82
2023/05/02 05:25:13;;;;;;;2.20;2.00;;;12.30;99.90;;;;;;1898090;75;21164;-82
2023/05/02 05:28:10;;;;;;;2.37;2.10;;;12.30;99.90;;;;;;1893129;75;21113;-81
2023/05/02 05:31:07;;;;;;;3.27;1.77;;;12.30;99.90;;;;;;1891032;75;21139;-82
2023/05/02 05:34:00;;;;;;;3.02;1.62;;;12.30;99.90;;;;;;1872399;75;21116;-81
2023/05/02 05:36:52;;;;;;;3.00;1.98;;;12.30;99.90;;;;;;1880503;75;21224;-82
2023/05/02 05:39:44;;;;;;;4.12;1.67;;;12.40;99.90;;;;;;1876250;75;21063;-81
2023/05/02 05:42:36;;;;;;;1.70;1.52;;;12.30;99.90;;;;;;1872737;75;21185;-81
2023/05/02 05:45:29;;;;;;;2.58;1.40;;;12.30;99.90;;;;;;1887926;75;21071;-81
2023/05/02 05:48:21;;;;;;;2.67;2.00;;;12.30;99.90;;;;;;1884410;75;21217;-82
2023/05/02 05:51:13;;;;;;;2.45;1.70;;;12.40;99.90;;;;;;1876031;75;21164;-82
2023/05/02 05:54:06;;;;;;;2.33;1.70;;;12.40;99.90;;;;;;1893421;75;21052;-80
2023/05/02 05:56:58;;;;;;;1.87;1.72;;;12.40;99.90;;;;;;1891216;75;21205;-82
2023/05/02 05:59:50;;;;;;;2.70;1.60;;;12.50;99.90;;;;;;1886217;75;21142;-82
2023/05/02 06:02:42;;;;;;;1.72;1.62;;;12.40;99.90;;;;;;1895181;75;21161;-82
2023/05/02 06:05:35;;;;;;;2.45;2.00;;;12.50;99.90;;;;;;1893291;75;21047;-82
2023/05/02 06:08:27;;;;;;;1.90;1.80;;;12.50;99.90;;;;;;1893207;75;21226;-82
2023/05/02 06:11:19;;;;;;;2.52;1.95;;;12.50;99.90;;;;;;1888002;75;21103;-82
2023/05/02 06:14:14;;;;;;;2.00;1.70;;;12.50;99.90;;;;;;1884807;75;21161;-82
2023/05/02 06:17:07;;;;;;;2.22;1.70;;;12.40;99.90;;;;;;1886357;75;21168;-82
2023/05/02 06:19:58;;;;;;;2.30;1.87;;;12.40;99.90;;;;;;1882616;75;21126;-81
2023/05/02 06:25:33;;;;;;;2.15;1.80;;;12.50;99.90;;;;;;1955288;72;22166;-83
2023/05/02 06:28:25;;;;;;;3.35;1.90;;;12.50;99.90;;;;;;1895271;74;21620;-81
2023/05/02 06:31:16;;;;;;;3.55;2.15;;;12.30;99.90;;;;;;1916525;75;21102;-84
2023/05/02 06:34:08;;;;;;;2.30;1.90;;;12.40;99.90;;;;;;1883459;76;21176;-82
2023/05/02 06:37:00;;;;;;;2.27;2.00;;;12.40;99.90;;;;;;1883712;76;21228;-81
2023/05/02 06:39:51;;;;;;;2.22;2.02;;;12.30;99.90;;;;;;1906006;75;21176;-81
2023/05/02 06:42:43;;;;;;;2.12;1.77;;;12.40;99.90;;;;;;1905965;75;21118;-82
2023/05/02 06:45:38;;;;;;;2.00;1.80;;;12.40;99.90;;;;;;1883724;75;21100;-82
2023/05/02 06:48:29;;;;;;;3.15;1.72;;;12.50;99.90;;;;;;1898354;75;21536;-81
2023/05/02 06:51:21;;;;;;;2.90;1.80;;;12.50;99.90;;;;;;1894622;75;21357;-82
2023/05/02 06:54:13;;;;;;;1.70;1.60;;;12.60;99.90;;;;;;1890761;75;21241;-82
2023/05/02 06:57:05;;;;;;;4.42;1.87;;;12.70;99.90;;;;;;1904669;75;21091;-82
2023/05/02 06:59:57;;;;;;;3.40;2.58;;;12.70;99.90;;;;;;1901734;75;21191;-82
2023/05/02 07:02:50;;;;;;;2.12;1.92;;;12.80;99.90;;;;;;1894612;75;21099;-81
2023/05/02 07:05:41;;;;;;;2.70;2.35;;;12.70;99.90;;;;;;1911496;75;21557;-81
2023/05/02 07:08:33;;;;;;;2.25;1.90;;;12.60;99.90;;;;;;1905923;75;21716;-81
2023/05/02 07:11:26;;;;;;;2.12;1.90;;;12.60;99.90;;;;;;1900865;75;21774;-81
2023/05/02 07:14:18;;;;;;;2.10;1.90;;;12.60;99.90;;;;;;1896609;75;21138;-84
2023/05/02 07:17:09;;;;;;;2.98;2.20;;;12.60;99.90;;;;;;1887575;75;21124;-82
2023/05/02 07:20:02;;;;;;;3.40;2.27;;;12.70;99.90;;;;;;1905916;75;21135;-81
2023/05/02 07:22:55;;;;;;;2.95;2.15;;;12.70;99.90;;;;;;1883784;75;21598;-81
2023/05/02 07:25:47;;;;;;;3.08;2.37;;;12.80;99.90;;;;;;1909275;74;21121;-82
2023/05/02 07:28:38;;;;;;;5.35;2.52;;;12.80;99.90;;;;;;1910634;74;21090;-81
2023/05/02 07:31:30;;;;;;;2.40;2.20;;;12.80;99.90;;;;;;1910724;74;21709;-81
2023/05/02 07:34:21;;;;;;;2.72;2.52;;;12.80;99.90;;;;;;1911509;74;21114;-84
2023/05/02 07:39:54;;;;;;;2.83;2.50;;;12.90;99.90;;;;;;1966829;72;22629;-81
2023/05/02 07:42:45;;;;;;;4.28;2.72;;;13.00;99.90;;;;;;1904509;75;22030;-81
2023/05/02 07:45:37;;;;;;;2.58;2.37;;;13.20;99.90;;;;;;1924430;74;21165;-81
2023/05/02 07:48:29;;;;;;;3.02;2.52;;;13.30;99.90;;;;;;1904414;75;21606;-81
2023/05/02 07:54:03;;;;;;;2.30;2.00;;;13.30;99.90;;;;;;1942152;72;22182;-82
2023/05/02 07:56:57;;;;;;;3.30;2.17;;;13.40;99.90;;;;;;1891589;75;21091;-83
2023/05/02 07:59:47;;;;;;;2.42;1.90;;;13.60;99.90;;;;;;1886880;75;21165;-82
2023/05/02 08:05:25;;;;;;;2.98;2.12;;;13.80;99.90;;;;;;1953444;72;22170;-83
2023/05/02 08:08:16;;;;;;;2.72;2.12;;;13.80;99.90;;;;;;1904471;75;21576;-81
2023/05/02 08:11:08;;;;;;;3.12;2.50;;;13.90;99.90;;;;;;1904474;75;21156;-81
2023/05/02 08:13:59;;;;;;;6.62;2.58;;;13.90;99.90;;;;;;1904583;75;21059;-81
2023/05/02 08:16:51;;;;;;;2.47;1.90;;;13.80;99.90;;;;;;1907924;74;21111;-81
2023/05/02 08:19:43;;;;;;;2.40;2.20;;;13.90;99.90;;;;;;1917899;74;21108;-81
2023/05/02 08:22:34;;;;;;;2.62;2.17;;;13.80;99.90;;;;;;1914814;74;21110;-81
2023/05/02 08:25:26;;;;;;;3.17;2.60;;;13.70;99.90;;;;;;1927321;74;21111;-81
2023/05/02 08:28:18;;;;;;;2.85;2.12;;;13.80;99.90;;;;;;1904565;75;21679;-82
2023/05/02 08:31:10;;;;;;;2.90;1.77;;;13.80;99.90;;;;;;1904439;75;21124;-81
2023/05/02 08:34:01;;;;;;;2.77;2.05;;;13.80;99.90;;;;;;1904670;75;21103;-81
2023/05/02 08:36:53;;;;;;;2.75;1.80;;;13.80;99.90;;;;;;1915220;74;21160;-82
2023/05/02 08:39:46;;;;;;;3.50;2.40;;;13.90;99.90;;;;;;1909974;74;21110;-82
2023/05/02 08:42:37;;;;;;;3.58;2.40;;;14.10;99.90;;;;;;1926840;74;21110;-82
2023/05/02 08:45:36;;;;;;;3.47;2.05;;;14.20;99.90;;;;;;1904564;75;21128;-81
2023/05/02 08:48:27;;;;;;;1.90;1.80;;;14.30;99.90;;;;;;1904694;75;21055;-82
2023/05/02 08:51:19;;;;;;;2.42;2.20;;;14.40;99.90;;;;;;1913431;74;21317;-82
2023/05/02 08:54:11;;;;;;;2.30;2.10;;;14.30;99.90;;;;;;1915511;74;21164;-82
2023/05/02 08:57:05;;;;;;;2.60;2.20;;;14.40;99.90;;;;;;1917375;74;21131;-81
2023/05/02 08:59:57;;;;;;;2.65;2.30;;;14.50;99.90;;;;;;1921234;74;21102;-83
2023/05/02 09:02:56;;;;;;;2.05;1.82;;;14.50;99.90;;;;;;1904919;74;21194;-82
2023/05/02 09:05:50;;;;;;;5.00;2.30;;;14.50;99.90;;;;;;1933822;73;21216;-81
2023/05/02 09:08:43;;;;;;;2.65;2.30;;;14.50;99.90;;;;;;1909398;75;21131;-82
2023/05/02 09:11:34;;;;;;;2.25;1.60;;;14.40;99.90;;;;;;1904475;75;21412;-81
2023/05/02 09:14:26;;;;;;;1.95;1.85;;;14.50;99.90;;;;;;1918972;74;21108;-82
2023/05/02 09:17:17;;;;;;;2.62;2.10;;;14.60;99.90;;;;;;1905777;74;21127;-82
2023/05/02 09:20:11;;;;;;;3.15;2.00;;;14.60;99.90;;;;;;1903819;75;21114;-82
2023/05/02 09:23:03;;;;;;;2.83;2.30;;;14.60;99.90;;;;;;1903899;75;21079;-82
2023/05/02 09:25:54;;;;;;;3.62;2.83;;;14.70;99.90;;;;;;1903974;75;21599;-82
2023/05/02 09:28:47;;;;;;;2.42;2.10;;;14.60;99.90;;;;;;1903922;75;21554;-81
2023/05/02 09:31:40;;;;;;;2.58;2.10;;;14.70;99.90;;;;;;1909285;74;21090;-81
2023/05/02 09:34:36;;;;;;;3.22;2.33;;;14.80;99.90;;;;;;1914944;74;21184;-82
2023/05/02 09:37:37;;;;;;;3.45;2.10;;;14.80;99.90;;;;;;1919159;74;21617;-82
2023/05/02 09:40:31;;;;;;;4.35;2.00;;;14.90;99.90;;;;;;1863223;77;21189;-82
2023/05/02 09:43:22;;;;;;;2.02;1.87;;;14.90;99.90;;;;;;1903903;74;21099;-83
2023/05/02 09:46:14;;;;;;;1.90;1.80;;;14.90;99.90;;;;;;1903457;75;21106;-83
2023/05/02 09:49:06;;;;;;;2.10;1.90;;;15.00;99.90;;;;;;1903651;75;21623;-82
2023/05/02 09:52:00;;;;;;;2.55;1.90;;;15.00;99.90;;;;;;1903520;75;21179;-82
2023/05/02 09:54:52;;;;;;;2.00;1.80;;;15.00;99.90;;;;;;1915366;74;21060;-82
2023/05/02 09:57:43;;;;;;;2.95;2.12;;;15.20;99.90;;;;;;1907914;74;21106;-81
2023/05/02 10:00:43;;;;;;;2.52;2.05;;;15.30;99.90;;;;;;1928369;74;21558;-81
2023/05/02 10:03:37;;;;;;;3.95;2.10;;;15.40;99.90;;;;;;1915812;74;21067;-82
2023/05/02 10:06:29;;;;;;;2.67;1.98;;;15.50;99.90;;;;;;1923882;74;21166;-82
2023/05/02 10:09:21;;;;;;;2.90;2.27;;;15.60;99.90;;;;;;1932570;73;21059;-84
2023/05/02 10:12:15;;;;;;;2.20;1.85;;;15.50;99.90;;;;;;1906165;74;21172;-82
2023/05/02 10:15:11;;;;;;;1.70;1.50;;;15.60;99.90;;;;;;1910993;74;21150;-81
2023/05/02 10:18:06;;;;;;;3.30;1.77;;;15.60;99.90;;;;;;1924357;73;21103;-82
2023/05/02 10:21:04;;;;;;;3.45;2.15;;;15.60;99.90;;;;;;1910128;74;21159;-82
2023/05/02 10:23:55;;;;;;;2.27;2.00;;;15.60;99.90;;;;;;1908439;74;21107;-81
2023/05/02 10:26:47;;;;;;;3.52;2.12;;;15.60;99.90;;;;;;1914341;74;21132;-82
2023/05/02 10:29:41;;;;;;;3.22;2.10;;;15.80;99.90;;;;;;1920824;73;21388;-82
2023/05/02 10:32:34;;;;;;;1.95;1.75;;;15.90;99.90;;;;;;1909734;74;21099;-81
2023/05/02 10:35:27;;;;;;;4.53;2.12;;;15.90;99.90;;;;;;1922275;74;21047;-82
2023/05/02 10:41:03;;;;;;;3.75;1.95;;;15.90;99.90;;;;;;1952961;72;22110;-81
2023/05/02 10:43:55;;;;;;;2.05;1.85;;;16.00;99.90;;;;;;1902062;75;21177;-82
2023/05/02 10:46:47;;;;;;;3.25;1.80;;;16.20;99.90;;;;;;1904228;75;21176;-82
2023/05/02 10:49:50;;;;;;;2.58;1.60;;;16.20;99.90;;;;;;1906300;75;21565;-81
2023/05/02 10:52:42;;;;;;;2.15;1.52;;;16.30;99.90;;;;;;1911439;75;21102;-83
2023/05/02 10:55:33;;;;;;;2.30;1.80;;;16.40;99.90;;;;;;1917089;75;21098;-83
2023/05/02 10:58:24;;;;;;;3.45;1.90;;;16.60;99.90;;;;;;1900211;75;21569;-83
2023/05/02 11:01:38;;;;;;;2.00;1.80;;;16.70;99.90;;;;;;1896004;75;21072;-83
2023/05/02 11:05:02;;;;;;;2.58;1.75;;;16.70;99.90;;;;;;1896056;75;21127;-81
2023/05/02 11:08:29;;;;;;;2.08;1.67;;;16.70;99.90;;;;;;1898360;75;21040;-81
2023/05/02 11:11:41;;;;;;;1.87;1.60;;;16.90;99.90;;;;;;1900601;75;21059;-82
2023/05/02 11:14:47;;;;;;;2.37;1.70;;;17.40;99.90;;;;;;1900979;75;21098;-82
2023/05/02 11:18:00;;;;;;;4.25;1.77;;;17.70;99.90;;;;;;1884321;76;21103;-82
2023/05/02 11:20:52;;;;;;;2.65;1.80;;;18.00;99.90;;;;;;1898041;75;21094;-82
2023/05/02 11:23:45;;;;;;;1.67;1.45;;;17.90;99.90;;;;;;1895160;75;21106;-82
2023/05/02 11:26:37;;;;;;;2.58;1.50;;;18.20;99.90;;;;;;1894761;75;21167;-82
2023/05/02 11:33:10;;;;;;;1.95;1.50;;;18.40;99.90;;;;;;1930373;72;28551;-83
2023/05/02 11:36:02;;;;;;;1.50;1.40;;;18.70;99.90;;;;;;1893953;75;21111;-83
2023/05/02 11:38:54;;;;;;;2.50;1.65;;;18.70;99.90;;;;;;1872278;76;21338;-82
2023/05/02 11:41:49;;;;;;;4.78;1.55;;;18.70;99.90;;;;;;1848337;77;21374;-82
2023/05/02 11:45:00;;;;;;;3.12;1.85;;;18.60;99.90;;;;;;1882892;75;21048;-82
2023/05/02 11:47:53;;;;;;;1.50;1.35;;;18.70;99.90;;;;;;1882514;75;21148;-82
2023/05/02 11:50:45;;;;;;;1.92;1.47;;;18.90;99.90;;;;;;1882674;75;21106;-82
2023/05/02 11:53:41;;;;;;;1.42;1.32;;;18.90;99.90;;;;;;1904767;75;21094;-82
2023/05/02 11:56:32;;;;;;;2.08;1.60;;;18.70;99.90;;;;;;1886019;75;21390;-82
2023/05/02 11:59:30;;;;;;;2.00;1.80;;;18.70;99.90;;;;;;1896545;75;21438;-82
2023/05/02 12:05:17;;;;;;;1.45;1.20;;;18.60;99.90;;;;;;1946018;72;22119;-83
2023/05/02 12:08:12;;;;;;;2.72;1.40;;;18.60;99.90;;;;;;1892552;75;21171;-82
2023/05/02 12:11:03;;;;;;;2.05;1.30;;;18.70;99.90;;;;;;1884806;75;21177;-82
2023/05/02 12:13:56;;;;;;;2.58;1.32;;;18.80;99.90;;;;;;1875231;75;21215;-82
2023/05/02 12:16:47;;;;;;;1.75;1.40;;;19.10;99.90;;;;;;1896890;75;21164;-81
2023/05/02 12:19:39;;;;;;;1.60;1.20;;;19.20;99.90;;;;;;1884613;75;21173;-81
2023/05/02 12:22:31;;;;;;;1.52;1.42;;;19.10;99.90;;;;;;1886981;75;21093;-81
2023/05/02 12:25:23;;;;;;;2.70;1.50;;;19.10;99.90;;;;;;1894954;75;21114;-81
2023/05/02 12:28:16;;;;;;;3.30;1.40;;;19.20;99.90;;;;;;1876425;75;21143;-83
2023/05/02 12:33:56;;;;;;;1.87;1.12;;;19.30;99.90;;;;;;1943265;72;28028;-81
2023/05/02 12:36:48;;;;;;;1.32;1.22;;;19.40;99.90;;;;;;1916633;75;21102;-83
2023/05/02 12:39:41;;;;;;;3.12;1.00;;;19.40;99.90;;;;;;1916975;75;21111;-82
2023/05/02 12:42:33;;;;;;;1.32;1.00;;;19.60;99.90;;;;;;1916506;75;21171;-82
2023/05/02 12:45:28;;;;;;;1.45;1.30;;;19.80;99.90;;;;;;1916953;75;21098;-81
2023/05/02 12:48:26;;;;;;;2.00;1.02;;;19.70;99.90;;;;;;1916955;75;21156;-81
2023/05/02 12:51:24;;;;;;;2.62;1.02;;;19.80;99.90;;;;;;1939585;73;21606;-81
2023/05/02 12:54:22;;;;;;;1.12;1.02;;;19.90;99.90;;;;;;1916975;74;21129;-81
2023/05/02 12:57:25;;;;;;;1.30;1.20;;;19.90;99.90;;;;;;1916350;75;21106;-81
2023/05/02 13:00:18;;;;;;;2.08;1.12;;;19.90;99.90;;;;;;1917039;75;21059;-82
2023/05/02 13:03:12;;;;;;;1.07;0.90;;;19.90;99.90;;;;;;1916244;75;21163;-82
2023/05/02 13:06:03;;;;;;;2.85;1.20;;;20.10;99.90;;;;;;1927628;73;21164;-81
2023/05/02 13:08:56;;;;;;;1.47;1.22;;;20.20;99.90;;;;;;1921717;73;21061;-81
2023/05/02 13:11:48;;;;;;;1.30;1.00;;;20.40;99.90;;;;;;1916578;75;21127;-81
2023/05/02 13:14:39;;;;;;;2.55;1.20;;;20.40;99.90;;;;;;1934652;73;21148;-81
2023/05/02 13:17:30;;;;;;;1.35;0.85;;;20.50;99.90;;;;;;1916818;75;21121;-81
2023/05/02 13:20:22;;;;;;;1.50;1.00;;;20.60;99.90;;;;;;1916894;75;21166;-81
2023/05/02 13:23:15;;;;;;;0.98;0.98;;;20.80;99.90;;;;;;1917123;75;21106;-81
2023/05/02 13:26:06;;;;;;;0.98;0.82;;;20.80;99.90;;;;;;1916886;75;21467;-81
2023/05/02 13:28:58;;;;;;;1.80;1.10;;;20.70;99.90;;;;;;1931475;73;21111;-81
2023/05/02 13:31:49;;;;;;;1.57;0.90;;;20.80;99.90;;;;;;1918927;73;21087;-81
2023/05/02 13:34:41;;;;;;;2.25;1.20;;;20.80;99.90;;;;;;1920645;73;21191;-81
2023/05/02 13:37:32;;;;;;;2.77;1.02;;;20.70;99.90;;;;;;1929358;73;21159;-81
2023/05/02 13:40:23;;;;;;;1.30;1.10;;;20.60;99.90;;;;;;1932381;73;21098;-81
2023/05/02 13:43:17;;;;;;;1.00;0.90;;;20.80;99.90;;;;;;1927715;73;21102;-82
2023/05/02 13:46:08;;;;;;;2.05;0.80;;;21.00;99.90;;;;;;1926896;73;21164;-82
2023/05/02 13:49:01;;;;;;;2.55;0.98;;;21.10;99.90;;;;;;1927051;73;21143;-82
2023/05/02 13:51:53;;;;;;;1.70;1.42;;;21.20;99.90;;;;;;1916284;75;21675;-81
2023/05/02 13:54:44;;;;;;;1.60;1.50;;;21.00;99.90;;;;;;1927886;73;21098;-82
2023/05/02 13:57:36;;;;;;;2.20;1.60;;;21.00;99.90;;;;;;1920935;73;21051;-82
2023/05/02 14:03:09;;;;;;;1.85;1.37;;;21.60;99.90;;;;;;1959184;72;22190;-82
2023/05/02 14:06:01;;;;;;;2.65;1.60;;;21.20;99.90;;;;;;1916847;75;21062;-82
2023/05/02 14:08:52;;;;;;;1.60;1.40;;;21.70;99.90;;;;;;1921866;73;21106;-82
2023/05/02 14:11:46;;;;;;;2.47;1.40;;;21.60;99.90;;;;;;1928406;73;21166;-82
2023/05/02 14:14:37;;;;;;;1.65;1.50;;;21.70;99.90;;;;;;1916847;75;21046;-81
2023/05/02 14:17:28;;;;;;;4.25;1.17;;;21.40;99.90;;;;;;1916835;75;21124;-82
2023/05/02 14:20:22;;;;;;;2.45;1.95;;;21.30;99.90;;;;;;1916411;75;21130;-82
2023/05/02 14:23:13;;;;;;;1.60;1.50;;;21.70;99.90;;;;;;1939801;73;21190;-81
2023/05/02 14:26:07;;;;;;;1.80;1.00;;;21.60;99.90;;;;;;1917035;75;21152;-82
2023/05/02 14:28:59;;;;;;;1.50;1.40;;;22.20;99.90;;;;;;1916981;75;21099;-82
2023/05/02 14:31:51;;;;;;;2.22;1.10;;;22.70;99.90;;;;;;1916862;75;21098;-82
2023/05/02 14:34:42;;;;;;;1.72;1.07;;;23.00;99.90;;;;;;1917041;75;21136;-82
2023/05/02 14:37:34;;;;;;;1.47;1.07;;;23.20;99.90;;;;;;1917017;75;21127;-82
2023/05/02 14:40:26;;;;;;;1.30;0.93;;;23.40;99.90;;;;;;1916914;75;21098;-82
2023/05/02 14:43:20;;;;;;;2.35;0.80;;;23.50;99.90;;;;;;1916967;75;21139;-81
2023/05/02 14:46:11;;;;;;;0.85;0.75;;;23.10;98.70;;;;;;1916763;75;21146;-82
2023/05/02 14:49:03;;;;;;;1.40;0.82;;;22.60;97.30;;;;;;1916867;75;21197;-82
2023/05/02 14:51:54;;;;;;;0.85;0.80;;;22.40;96.90;;;;;;1935604;73;21135;-81
2023/05/02 14:54:48;;;;;;;1.02;0.80;;;22.30;96.60;;;;;;1916470;75;21153;-81
2023/05/02 14:57:39;;;;;;;1.40;1.30;;;22.20;96.00;;;;;;1916693;75;21050;-82
2023/05/02 15:00:30;;;;;;;0.75;0.75;;;22.60;95.90;;;;;;1919507;73;21140;-82
2023/05/02 15:03:22;;;;;;;2.22;0.70;;;22.80;94.30;;;;;;1922748;73;21186;-82
2023/05/02 15:06:14;;;;;;;2.98;1.07;;;23.50;93.90;;;;;;1917386;74;21114;-82
2023/05/02 15:09:06;;;;;;;1.10;0.60;;;24.40;92.60;;;;;;1919527;73;21137;-82
2023/05/02 15:11:58;;;;;;;0.70;0.70;;;24.90;90.10;;;;;;1928760;74;21110;-82
2023/05/02 15:14:49;;;;;;;1.42;0.70;;;24.80;86.70;;;;;;1929914;73;21362;-81
2023/05/02 15:17:41;;;;;;;1.40;0.55;;;25.10;82.90;;;;;;1931224;73;21172;-81
2023/05/02 15:20:33;;;;;;;1.00;0.53;;;25.30;80.90;;;;;;1905320;74;21176;-82
2023/05/02 15:23:24;;;;;;;1.82;0.80;;;25.20;76.00;;;;;;1904103;75;21151;-82
2023/05/02 15:26:16;;;;;;;1.50;0.50;;;24.90;75.00;;;;;;1903949;75;21154;-82
2023/05/02 15:29:07;;;;;;;1.12;0.60;;;24.90;73.60;;;;;;1916230;75;21612;-81
2023/05/02 15:31:59;;;;;;;0.65;0.50;;;25.00;73.10;;;;;;1938669;73;21181;-82
2023/05/02 15:34:50;;;;;;;0.98;0.47;;;25.10;71.30;;;;;;1903869;75;21138;-82
2023/05/02 15:37:42;;;;;;;1.15;0.70;;;25.10;70.70;;;;;;1903676;75;21206;-82
2023/05/02 15:40:33;;;;;;;0.82;0.50;;;25.30;70.40;;;;;;1934466;73;21098;-82
2023/05/02 15:43:26;;;;;;;0.50;0.50;;;25.70;69.20;;;;;;1903921;75;21209;-82
2023/05/02 15:46:17;;;;;;;2.15;0.60;;;25.50;66.90;;;;;;1926106;74;21072;-83
2023/05/02 15:49:09;;;;;;;1.05;0.60;;;25.40;67.80;;;;;;1903829;74;21115;-82
2023/05/02 15:52:01;;;;;;;0.62;0.60;;;25.50;67.40;;;;;;1916132;75;21090;-83